createdAt,value
2023-04-01T00:00:54.467Z,30.75
2023-04-01T00:01:57.547Z,25.00
2023-04-01T00:03:02.741Z,15.50
2023-04-01T00:04:05.806Z,4.75
2023-04-01T00:05:09.423Z,3.00
2023-04-01T00:06:16.106Z,5.50
2023-04-01T00:07:19.033Z,12.50
2023-04-01T00:08:22.252Z,16.50
2023-04-01T00:09:25.145Z,17.50
2023-04-01T00:10:32.832Z,15.75
2023-04-01T00:11:37.642Z,13.25
2023-04-01T00:12:41.869Z,10.50
2023-04-01T00:13:45.890Z,4.50
2023-04-01T00:14:48.704Z,7.50
2023-04-01T00:15:51.870Z,12.75
2023-04-01T00:16:54.962Z,17.50
2023-04-01T00:17:57.853Z,21.00
2023-04-01T00:19:00.711Z,19.00
2023-04-01T00:20:04.986Z,16.00
2023-04-01T00:21:08.069Z,14.50
2023-04-01T00:22:13.768Z,8.00
2023-04-01T00:23:17.980Z,5.00
2023-04-01T00:24:21.367Z,4.00
2023-04-01T00:25:24.702Z,4.00
2023-04-01T00:26:27.697Z,6.50
2023-04-01T00:27:30.566Z,12.00
2023-04-01T00:28:35.774Z,10.00
2023-04-01T00:29:38.590Z,9.50
2023-04-01T00:30:41.484Z,8.00
2023-04-01T00:31:44.407Z,5.00
2023-04-01T00:32:47.634Z,4.75
2023-04-01T00:33:50.645Z,5.25
2023-04-01T00:34:55.060Z,11.00
2023-04-01T00:35:58.448Z,14.00
2023-04-01T00:37:01.473Z,15.75
2023-04-01T00:38:05.321Z,14.00
2023-04-01T00:39:08.305Z,14.00
2023-04-01T00:40:26.061Z,17.00
2023-04-01T00:41:30.345Z,19.00
2023-04-01T00:42:33.801Z,19.00
2023-04-01T00:43:37.514Z,15.75
2023-04-01T00:44:40.764Z,10.00
2023-04-01T00:45:45.309Z,6.75
2023-04-01T00:46:48.680Z,5.00
2023-04-01T00:47:51.640Z,7.00
2023-04-01T00:48:57.604Z,7.00
2023-04-01T00:50:01.628Z,6.00
2023-04-01T00:51:31.581Z,5.00
2023-04-01T00:52:35.207Z,8.00
2023-04-01T00:53:42.861Z,10.75
2023-04-01T00:54:49.929Z,8.00
2023-04-01T00:55:59.552Z,5.00
2023-04-01T00:57:26.211Z,5.00
2023-04-01T00:58:33.132Z,3.00
2023-04-01T00:59:44.336Z,5.25
2023-04-01T01:00:50.344Z,3.00
2023-04-01T01:01:53.770Z,4.00
2023-04-01T01:02:56.768Z,3.00
2023-04-01T01:03:59.781Z,3.25
2023-04-01T01:05:02.824Z,4.50
2023-04-01T01:06:27.565Z,4.00
2023-04-01T01:07:46.761Z,3.00
2023-04-01T01:09:09.801Z,3.75
2023-04-01T01:10:28.698Z,3.00
2023-04-01T01:11:46.426Z,3.00
2023-04-01T01:13:02.432Z,4.75
2023-04-01T01:14:21.651Z,4.00
2023-04-01T01:15:35.029Z,5.00
2023-04-01T01:16:45.783Z,5.00
2023-04-01T01:18:18.694Z,5.00
2023-04-01T01:19:43.070Z,7.50
2023-04-01T01:21:13.984Z,15.50
2023-04-01T01:22:48.402Z,14.00
2023-04-01T01:24:13.714Z,10.50
2023-04-01T01:25:43.141Z,11.25
2023-04-01T01:27:09.930Z,6.50
2023-04-01T01:28:24.781Z,5.00
2023-04-01T01:29:27.645Z,3.25
2023-04-01T01:30:46.572Z,4.00
2023-04-01T01:31:57.647Z,3.00
2023-04-01T01:33:12.252Z,4.00
2023-04-01T01:34:42.735Z,3.00
2023-04-01T01:35:49.832Z,12.25
2023-04-01T01:36:57.362Z,22.00
2023-04-01T01:38:04.764Z,26.50
2023-04-01T01:39:10.233Z,17.50
2023-04-01T01:40:15.037Z,13.75
2023-04-01T01:41:20.006Z,5.00
2023-04-01T01:42:26.201Z,5.00
2023-04-01T01:43:33.259Z,5.00
2023-04-01T01:44:39.370Z,4.00
2023-04-01T01:45:47.063Z,4.00
2023-04-01T01:46:50.800Z,5.00
2023-04-01T01:47:54.361Z,4.25
2023-04-01T01:48:58.780Z,4.00
2023-04-01T01:50:02.319Z,5.00
2023-04-01T01:51:08.358Z,5.00
2023-04-01T01:52:11.524Z,5.00
2023-04-01T01:53:15.647Z,4.50
2023-04-01T01:54:20.043Z,6.75
2023-04-01T01:55:36.269Z,7.00
2023-04-01T01:56:40.362Z,6.00
2023-04-01T01:57:46.470Z,5.00
2023-04-01T01:58:57.870Z,4.00
2023-04-01T02:00:19.960Z,3.00
2023-04-01T02:01:27.770Z,4.75
2023-04-01T02:02:33.749Z,5.00
2023-04-01T02:03:39.170Z,5.00
2023-04-01T02:04:44.888Z,5.00
2023-04-01T02:05:48.580Z,4.00
2023-04-01T02:07:05.770Z,3.25
2023-04-01T02:08:17.451Z,4.00
2023-04-01T02:09:20.985Z,4.00
2023-04-01T02:10:27.868Z,3.00
2023-04-01T02:11:50.793Z,2.25
2023-04-01T02:13:00.149Z,1.00
2023-04-01T02:14:21.452Z,1.25
2023-04-01T02:15:25.012Z,2.00
2023-04-01T02:16:41.624Z,4.25
2023-04-01T02:17:47.545Z,3.00
2023-04-01T02:18:53.869Z,4.50
2023-04-01T02:20:03.760Z,4.75
2023-04-01T02:21:08.303Z,3.75
2023-04-01T02:22:16.842Z,4.50
2023-04-01T02:23:19.783Z,4.00
2023-04-01T02:24:25.475Z,4.00
2023-04-01T02:25:33.158Z,4.00
2023-04-01T02:26:37.274Z,4.00
2023-04-01T02:27:41.451Z,3.25
2023-04-01T02:28:47.543Z,4.00
2023-04-01T02:29:50.548Z,3.00
2023-04-01T02:30:54.022Z,3.00
2023-04-01T02:31:57.467Z,2.00
2023-04-01T02:33:01.321Z,2.75
2023-04-01T02:34:06.423Z,3.00
2023-04-01T02:35:15.453Z,2.00
2023-04-01T02:36:18.849Z,2.00
2023-04-01T02:37:22.367Z,4.00
2023-04-01T02:38:25.648Z,5.00
2023-04-01T02:39:28.655Z,3.00
2023-04-01T02:40:31.959Z,5.50
2023-04-01T02:41:41.270Z,5.00
2023-04-01T02:42:44.170Z,5.00
2023-04-01T02:43:47.077Z,5.00
2023-04-01T02:44:50.007Z,4.00
2023-04-01T02:45:52.931Z,5.50
2023-04-01T02:46:55.994Z,3.00
2023-04-01T02:47:58.841Z,4.00
2023-04-01T02:49:01.782Z,3.00
2023-04-01T02:50:05.764Z,2.00
2023-04-01T02:51:08.598Z,2.00
2023-04-01T02:52:11.625Z,2.00
2023-04-01T02:53:14.519Z,3.50
2023-04-01T02:54:17.468Z,3.00
2023-04-01T02:55:20.324Z,4.00
2023-04-01T02:56:23.689Z,2.00
2023-04-01T02:57:27.163Z,1.00
2023-04-01T02:58:30.050Z,1.00
2023-04-01T02:59:32.848Z,1.00
2023-04-01T03:00:35.750Z,1.00
2023-04-01T03:01:38.663Z,1.00
2023-04-01T03:02:41.753Z,1.00
2023-04-01T03:03:44.648Z,1.00
2023-04-01T03:04:48.035Z,1.00
2023-04-01T03:05:50.938Z,0.00
2023-04-01T03:06:53.960Z,0.00
2023-04-01T03:07:57.104Z,1.00
2023-04-01T03:08:59.980Z,3.00
2023-04-01T03:10:02.885Z,2.25
2023-04-01T03:11:06.226Z,2.00
2023-04-01T03:12:09.456Z,3.50
2023-04-01T03:13:12.342Z,3.00
2023-04-01T03:14:15.186Z,2.00
2023-04-01T03:15:18.301Z,2.00
2023-04-01T03:16:21.206Z,2.00
2023-04-01T03:17:24.093Z,0.00
2023-04-01T03:18:27.095Z,0.00
2023-04-01T03:19:29.982Z,0.00
2023-04-01T03:20:32.831Z,0.00
2023-04-01T03:21:35.714Z,2.00
2023-04-01T03:22:40.862Z,5.75
2023-04-01T03:23:45.915Z,5.00
2023-04-01T03:24:51.993Z,4.00
2023-04-01T03:25:54.813Z,2.00
2023-04-01T03:26:57.893Z,2.00
2023-04-01T03:28:01.835Z,2.75
2023-04-01T03:29:04.833Z,4.00
2023-04-01T03:30:09.637Z,9.50
2023-04-01T03:31:13.029Z,17.75
2023-04-01T03:32:15.894Z,10.25
2023-04-01T03:33:18.744Z,6.00
2023-04-01T03:34:21.618Z,4.00
2023-04-01T03:35:24.534Z,2.25
2023-04-01T03:36:27.706Z,3.00
2023-04-01T03:37:30.570Z,5.00
2023-04-01T03:38:33.367Z,1.00
2023-04-01T03:39:37.220Z,0.00
2023-04-01T03:40:44.213Z,1.00
2023-04-01T03:41:48.032Z,6.00
2023-04-01T03:42:52.192Z,5.00
2023-04-01T03:43:55.999Z,6.00
2023-04-01T03:44:58.804Z,5.00
2023-04-01T03:46:01.775Z,5.25
2023-04-01T03:47:04.864Z,5.00
2023-04-01T03:48:07.798Z,5.25
2023-04-01T03:49:15.265Z,5.00
2023-04-01T03:50:18.174Z,5.00
2023-04-01T03:51:21.017Z,7.00
2023-04-01T03:52:24.143Z,7.50
2023-04-01T03:53:27.070Z,6.50
2023-04-01T03:54:29.909Z,8.00
2023-04-01T03:55:32.823Z,10.00
2023-04-01T03:56:35.924Z,7.00
2023-04-01T03:57:38.949Z,6.00
2023-04-01T03:58:41.947Z,6.50
2023-04-01T03:59:44.774Z,6.00
2023-04-01T04:00:48.112Z,8.25
2023-04-01T04:01:51.016Z,9.50
2023-04-01T04:02:53.973Z,12.00
2023-04-01T04:03:57.060Z,10.00
2023-04-01T04:05:00.026Z,13.00
2023-04-01T04:06:02.953Z,16.00
2023-04-01T04:07:06.113Z,15.75
2023-04-01T04:08:08.900Z,13.50
2023-04-01T04:09:11.796Z,6.00
2023-04-01T04:10:14.762Z,2.00
2023-04-01T04:11:18.562Z,3.00
2023-04-01T04:12:21.439Z,5.00
2023-04-01T04:13:24.349Z,5.00
2023-04-01T04:14:27.362Z,2.00
2023-04-01T04:15:30.251Z,2.50
2023-04-01T04:16:33.361Z,3.00
2023-04-01T04:17:36.304Z,4.25
2023-04-01T04:18:39.393Z,5.00
2023-04-01T04:19:42.400Z,6.00
2023-04-01T04:20:53.317Z,6.25
2023-04-01T04:21:56.202Z,8.00
2023-04-01T04:22:59.105Z,6.00
2023-04-01T04:24:02.920Z,7.00
2023-04-01T04:25:06.080Z,10.00
2023-04-01T04:26:11.562Z,10.00
2023-04-01T04:27:14.471Z,7.00
2023-04-01T04:28:17.286Z,8.00
2023-04-01T04:29:20.066Z,7.00
2023-04-01T04:30:22.910Z,10.00
2023-04-01T04:31:27.492Z,10.00
2023-04-01T04:32:31.240Z,8.00
2023-04-01T04:33:35.096Z,10.00
2023-04-01T04:34:37.983Z,13.75
2023-04-01T04:35:40.810Z,15.00
2023-04-01T04:36:43.682Z,13.00
2023-04-01T04:37:46.623Z,11.00
2023-04-01T04:38:50.305Z,12.00
2023-04-01T04:39:53.159Z,12.00
2023-04-01T04:40:56.561Z,12.25
2023-04-01T04:41:59.422Z,12.00
2023-04-01T04:43:02.290Z,12.00
2023-04-01T04:44:05.734Z,13.00
2023-04-01T04:45:08.929Z,10.75
2023-04-01T04:46:12.924Z,11.00
2023-04-01T04:47:15.765Z,11.00
2023-04-01T04:48:20.897Z,11.00
2023-04-01T04:49:24.136Z,13.00
2023-04-01T04:50:27.764Z,14.00
2023-04-01T04:51:30.630Z,15.00
2023-04-01T04:52:33.408Z,16.75
2023-04-01T04:53:36.220Z,17.00
2023-04-01T04:54:39.082Z,15.00
2023-04-01T04:55:52.373Z,14.00
2023-04-01T04:56:56.050Z,15.00
2023-04-01T04:57:58.978Z,17.50
2023-04-01T04:59:02.286Z,20.00
2023-04-01T05:00:05.837Z,19.50
2023-04-01T05:01:14.404Z,19.00
2023-04-01T05:02:17.265Z,19.00
2023-04-01T05:03:20.358Z,20.00
2023-04-01T05:04:23.307Z,17.00
2023-04-01T05:05:26.316Z,15.75
2023-04-01T05:06:31.752Z,15.00
2023-04-01T05:07:36.311Z,15.00
2023-04-01T05:08:41.001Z,15.00
2023-04-01T05:09:43.966Z,15.50
2023-04-01T05:10:47.180Z,15.50
2023-04-01T05:11:49.985Z,14.00
2023-04-01T05:12:52.873Z,15.00
2023-04-01T05:13:55.752Z,15.00
2023-04-01T05:14:58.663Z,11.00
2023-04-01T05:16:01.518Z,11.75
2023-04-01T05:17:04.423Z,15.00
2023-04-01T05:18:07.395Z,15.00
2023-04-01T05:19:10.290Z,14.50
2023-04-01T05:20:15.634Z,12.00
2023-04-01T05:21:18.645Z,11.00
2023-04-01T05:22:22.340Z,11.50
2023-04-01T05:23:25.500Z,10.75
2023-04-01T05:24:28.334Z,10.00
2023-04-01T05:25:31.322Z,11.00
2023-04-01T05:26:34.917Z,10.00
2023-04-01T05:27:38.260Z,10.00
2023-04-01T05:28:41.751Z,11.00
2023-04-01T05:29:44.867Z,11.00
2023-04-01T05:30:48.337Z,10.00
2023-04-01T05:31:51.225Z,10.50
2023-04-01T05:32:54.203Z,10.50
2023-04-01T05:33:57.488Z,10.50
2023-04-01T05:35:00.338Z,11.25
2023-04-01T05:36:14.717Z,12.50
2023-04-01T05:37:17.600Z,11.00
2023-04-01T05:38:20.495Z,11.00
2023-04-01T05:39:23.412Z,12.00
2023-04-01T05:40:26.315Z,10.50
2023-04-01T05:41:29.135Z,12.00
2023-04-01T05:42:32.206Z,10.00
2023-04-01T05:43:38.636Z,7.00
2023-04-01T05:44:41.772Z,7.00
2023-04-01T05:45:44.767Z,8.00
2023-04-01T05:46:47.661Z,7.75
2023-04-01T05:47:50.838Z,5.25
2023-04-01T05:48:53.716Z,7.00
2023-04-01T05:49:57.712Z,6.25
2023-04-01T05:51:00.509Z,6.75
2023-04-01T05:52:03.325Z,5.00
2023-04-01T05:53:06.218Z,6.00
2023-04-01T05:54:09.041Z,6.00
2023-04-01T05:55:11.923Z,5.00
2023-04-01T05:56:15.424Z,7.75
2023-04-01T05:57:18.309Z,7.00
2023-04-01T05:58:21.261Z,9.00
2023-04-01T05:59:24.114Z,11.00
2023-04-01T06:00:26.970Z,11.00
2023-04-01T06:01:29.794Z,11.00
2023-04-01T06:02:32.674Z,11.00
2023-04-01T06:03:36.561Z,11.50
2023-04-01T06:04:42.462Z,11.00
2023-04-01T06:05:46.651Z,8.00
2023-04-01T06:06:49.540Z,8.25
2023-04-01T06:08:00.274Z,9.00
2023-04-01T06:09:18.492Z,8.00
2023-04-01T06:10:23.053Z,7.00
2023-04-01T06:11:44.529Z,6.00
2023-04-01T06:13:02.471Z,5.00
2023-04-01T06:14:11.590Z,5.00
2023-04-01T06:15:36.277Z,6.50
2023-04-01T06:17:00.882Z,5.00
2023-04-01T06:18:39.159Z,5.00
2023-04-01T06:19:47.979Z,4.00
2023-04-01T06:21:17.276Z,4.00
2023-04-01T06:22:30.847Z,4.25
2023-04-01T06:23:48.539Z,4.00
2023-04-01T06:25:16.210Z,5.00
2023-04-01T06:26:24.658Z,3.50
2023-04-01T06:27:45.943Z,2.25
2023-04-01T06:29:02.411Z,1.75
2023-04-01T06:30:11.024Z,3.00
2023-04-01T06:31:32.247Z,2.00
2023-04-01T06:32:44.337Z,4.00
2023-04-01T06:34:26.809Z,3.75
2023-04-01T06:35:38.340Z,2.00
2023-04-01T06:37:05.312Z,3.75
2023-04-01T06:38:38.006Z,1.25
2023-04-01T06:40:18.943Z,3.00
2023-04-01T06:41:36.502Z,2.00
2023-04-01T06:42:50.552Z,2.00
2023-04-01T06:44:30.770Z,6.00
2023-04-01T06:45:48.257Z,7.00
2023-04-01T06:47:21.477Z,8.00
2023-04-01T06:48:27.296Z,5.75
2023-04-01T06:49:35.955Z,5.75
2023-04-01T06:51:11.057Z,6.50
2023-04-01T06:52:28.717Z,8.00
2023-04-01T06:53:45.814Z,6.00
2023-04-01T06:54:58.262Z,4.25
2023-04-01T06:56:10.363Z,4.00
2023-04-01T06:57:34.447Z,5.00
2023-04-01T06:58:42.068Z,4.00
2023-04-01T06:59:45.512Z,3.00
2023-04-01T07:00:53.137Z,3.00
2023-04-01T07:01:59.464Z,3.75
2023-04-01T07:03:23.054Z,4.50
2023-04-01T07:04:31.904Z,1.00
2023-04-01T07:05:36.404Z,17.50
2023-04-01T07:06:43.087Z,31.00
2023-04-01T07:07:52.943Z,27.00
2023-04-01T07:09:04.276Z,27.75
2023-04-01T07:10:17.909Z,33.75
2023-04-01T07:11:35.128Z,29.00
2023-04-01T07:12:50.311Z,21.00
2023-04-01T07:14:03.696Z,13.50
2023-04-01T07:15:20.512Z,7.75
2023-04-01T07:16:50.251Z,6.75
2023-04-01T07:18:05.410Z,4.00
2023-04-01T07:19:13.954Z,4.00
2023-04-01T07:20:25.391Z,1.50
2023-04-01T07:21:54.362Z,0.00
2023-04-01T07:23:02.470Z,0.00
2023-04-01T07:24:23.258Z,0.00
2023-04-01T07:25:33.411Z,6.25
2023-04-01T07:26:36.368Z,5.25
2023-04-01T07:27:39.180Z,2.25
2023-04-01T07:28:42.027Z,4.75
2023-04-01T07:29:44.931Z,2.00
2023-04-01T07:31:03.967Z,0.00
2023-04-01T07:32:19.449Z,0.75
2023-04-01T07:33:27.744Z,0.00
2023-04-01T07:35:04.107Z,0.00
2023-04-01T07:36:22.188Z,0.00
2023-04-01T07:37:30.910Z,0.00
2023-04-01T07:38:42.753Z,0.00
2023-04-01T07:40:04.744Z,0.00
2023-04-01T07:41:13.982Z,0.00
2023-04-01T07:42:38.673Z,0.00
2023-04-01T07:43:58.027Z,0.00
2023-04-01T07:45:23.532Z,0.00
2023-04-01T07:46:51.246Z,0.00
2023-04-01T07:48:00.944Z,0.00
2023-04-01T07:49:13.943Z,0.00
2023-04-01T07:50:37.049Z,0.00
2023-04-01T07:51:53.628Z,0.00
2023-04-01T07:52:56.409Z,0.00
2023-04-01T07:54:08.616Z,0.00
2023-04-01T07:55:20.793Z,0.00
2023-04-01T07:56:45.877Z,0.00
2023-04-01T07:58:06.821Z,0.00
2023-04-01T07:59:27.639Z,0.00
2023-04-01T08:00:39.523Z,0.00
2023-04-01T08:02:08.520Z,0.00
2023-04-01T08:03:14.061Z,0.00
2023-04-01T08:04:30.616Z,0.00
2023-04-01T08:05:50.453Z,0.00
2023-04-01T08:07:28.667Z,0.00
2023-04-01T08:08:34.561Z,0.00
2023-04-01T08:09:56.852Z,0.00
2023-04-01T08:11:24.395Z,0.00
2023-04-01T08:12:38.175Z,0.00
2023-04-01T08:14:18.053Z,0.00
2023-04-01T08:15:25.971Z,0.00
2023-04-01T08:16:40.201Z,0.00
2023-04-01T08:18:10.444Z,0.00
2023-04-01T08:19:31.933Z,0.00
2023-04-01T08:20:56.151Z,0.00
2023-04-01T08:22:06.670Z,0.00
2023-04-01T08:23:23.960Z,0.00
2023-04-01T08:24:47.676Z,0.00
2023-04-01T08:26:03.081Z,0.00
2023-04-01T08:27:11.976Z,0.00
2023-04-01T08:28:48.150Z,0.00
2023-04-01T08:29:57.094Z,0.00
2023-04-01T08:31:15.074Z,0.00
2023-04-01T08:32:28.778Z,0.00
2023-04-01T08:33:33.715Z,0.00
2023-04-01T08:34:40.118Z,0.00
2023-04-01T08:35:45.993Z,0.00
2023-04-01T08:36:56.492Z,0.00
2023-04-01T08:38:08.490Z,0.00
2023-04-01T08:39:37.488Z,0.50
2023-04-01T08:40:52.211Z,0.00
2023-04-01T08:42:32.655Z,0.00
2023-04-01T08:43:56.286Z,0.00
2023-04-01T08:45:06.960Z,0.00
2023-04-01T08:46:22.463Z,0.00
2023-04-01T08:47:31.545Z,0.00
2023-04-01T08:48:46.246Z,0.00
2023-04-01T08:50:21.844Z,0.00
2023-04-01T08:52:00.049Z,0.00
2023-04-01T08:53:14.699Z,0.00
2023-04-01T08:54:42.698Z,0.00
2023-04-01T08:56:03.700Z,0.00
2023-04-01T08:57:12.343Z,0.00
2023-04-01T08:58:33.711Z,0.00
2023-04-01T09:00:05.472Z,0.00
2023-04-01T09:01:38.670Z,0.00
2023-04-01T09:02:53.793Z,0.00
2023-04-01T09:04:20.686Z,0.00
2023-04-01T09:05:45.119Z,0.00
2023-04-01T09:07:14.292Z,0.00
2023-04-01T09:08:55.961Z,0.00
2023-04-01T09:10:09.866Z,0.00
2023-04-01T09:11:15.476Z,0.00
2023-04-01T09:12:52.288Z,0.00
2023-04-01T09:14:37.693Z,0.00
2023-04-01T09:15:59.413Z,0.00
2023-04-01T09:17:02.474Z,1.25
2023-04-01T09:18:31.790Z,0.00
2023-04-01T09:20:03.615Z,0.00
2023-04-01T09:21:25.931Z,0.00
2023-04-01T09:22:31.777Z,0.00
2023-04-01T09:23:37.629Z,0.00
2023-04-01T09:25:02.017Z,0.00
2023-04-01T09:26:13.792Z,0.00
2023-04-01T09:27:30.806Z,0.00
2023-04-01T09:28:52.123Z,0.00
2023-04-01T09:30:23.966Z,0.00
2023-04-01T09:31:41.600Z,0.00
2023-04-01T09:33:03.247Z,0.00
2023-04-01T09:34:23.980Z,0.00
2023-04-01T09:35:42.363Z,0.00
2023-04-01T09:36:57.553Z,0.00
2023-04-01T09:38:22.657Z,0.00
2023-04-01T09:39:34.594Z,0.00
2023-04-01T09:41:02.125Z,0.00
2023-04-01T09:42:35.597Z,0.00
2023-04-01T09:43:50.068Z,0.00
2023-04-01T09:44:56.012Z,0.00
2023-04-01T09:46:25.967Z,0.00
2023-04-01T09:47:59.343Z,0.00
2023-04-01T09:49:36.329Z,0.00
2023-04-01T09:51:14.123Z,0.00
2023-04-01T09:52:20.057Z,0.00
2023-04-01T09:53:43.692Z,0.00
2023-04-01T09:55:13.350Z,0.00
2023-04-01T09:56:45.586Z,0.00
2023-04-01T09:58:06.918Z,0.00
2023-04-01T09:59:27.911Z,0.00
2023-04-01T10:00:58.655Z,0.00
2023-04-01T10:02:16.436Z,0.00
2023-04-01T10:03:37.973Z,0.00
2023-04-01T10:05:15.274Z,0.00
2023-04-01T10:06:45.704Z,0.00
2023-04-01T10:08:16.769Z,0.00
2023-04-01T10:09:22.517Z,0.00
2023-04-01T10:10:40.819Z,1.00
2023-04-01T10:11:46.477Z,0.00
2023-04-01T10:13:27.040Z,0.00
2023-04-01T10:14:48.043Z,0.00
2023-04-01T10:16:13.606Z,0.00
2023-04-01T10:17:58.160Z,0.00
2023-04-01T10:19:26.623Z,0.00
2023-04-01T10:20:53.971Z,0.00
2023-04-01T10:22:20.252Z,0.00
2023-04-01T10:23:40.933Z,0.00
2023-04-01T10:24:58.714Z,0.00
2023-04-01T10:26:07.452Z,0.00
2023-04-01T10:27:51.542Z,0.00
2023-04-01T10:29:17.183Z,0.00
2023-04-01T10:30:53.620Z,0.00
2023-04-01T10:31:59.149Z,0.00
2023-04-01T10:33:33.922Z,0.00
2023-04-01T10:34:36.744Z,0.00
2023-04-01T10:35:48.715Z,0.00
2023-04-01T10:37:00.402Z,0.00
2023-04-01T10:38:37.138Z,0.00
2023-04-01T10:40:14.704Z,0.00
2023-04-01T10:41:36.882Z,0.00
2023-04-01T10:43:07.375Z,0.00
2023-04-01T10:44:28.915Z,0.00
2023-04-01T10:46:00.285Z,0.00
2023-04-01T10:47:35.362Z,0.00
2023-04-01T10:48:47.974Z,0.00
2023-04-01T10:50:13.338Z,0.00
2023-04-01T10:51:54.058Z,0.00
2023-04-01T10:53:18.188Z,0.00
2023-04-01T10:54:38.760Z,0.00
2023-04-01T10:56:07.321Z,1.00
2023-04-01T10:57:51.556Z,0.00
2023-04-01T10:59:15.146Z,0.75
2023-04-01T11:00:30.580Z,0.00
2023-04-01T11:02:10.039Z,0.00
2023-04-01T11:04:04.568Z,0.00
2023-04-01T11:05:41.376Z,1.50
2023-04-01T11:06:50.217Z,2.00
2023-04-01T11:08:07.100Z,0.00
2023-04-01T11:09:58.621Z,0.00
2023-04-01T11:11:28.022Z,1.25
2023-04-01T11:13:16.103Z,0.00
2023-04-01T11:14:56.028Z,0.00
2023-04-01T11:16:20.330Z,0.00
2023-04-01T11:17:23.296Z,0.00
2023-04-01T11:18:44.551Z,0.00
2023-04-01T11:20:18.171Z,0.25
2023-04-01T11:21:55.724Z,0.00
2023-04-01T11:23:30.624Z,0.00
2023-04-01T11:24:57.636Z,0.00
2023-04-01T11:26:06.209Z,0.00
2023-04-01T11:27:32.152Z,0.00
2023-04-01T11:28:37.965Z,0.00
2023-04-01T11:30:06.940Z,0.00
2023-04-01T11:31:28.340Z,0.00
2023-04-01T11:33:08.640Z,0.00
2023-04-01T11:34:34.076Z,3.75
2023-04-01T11:35:55.258Z,1.00
2023-04-01T11:37:31.887Z,1.00
2023-04-01T11:38:43.735Z,1.75
2023-04-01T11:39:57.067Z,2.00
2023-04-01T11:41:21.860Z,16.50
2023-04-01T11:42:52.120Z,26.50
2023-04-01T11:44:03.698Z,15.50
2023-04-01T11:45:31.357Z,7.75
2023-04-01T11:46:58.798Z,2.50
2023-04-01T11:48:38.531Z,0.75
2023-04-01T11:49:55.846Z,0.00
2023-04-01T11:51:12.164Z,0.00
2023-04-01T11:52:17.696Z,0.00
2023-04-01T11:53:56.765Z,0.00
2023-04-01T11:55:06.091Z,0.00
2023-04-01T11:56:17.191Z,0.00
2023-04-01T11:57:30.207Z,0.00
2023-04-01T11:58:57.445Z,0.00
2023-04-01T12:00:22.692Z,0.00
2023-04-01T12:01:31.452Z,0.00
2023-04-01T12:02:54.991Z,0.00
2023-04-01T12:04:34.984Z,0.00
2023-04-01T12:06:05.593Z,0.50
2023-04-01T12:07:46.492Z,0.00
2023-04-01T12:09:00.162Z,0.00
2023-04-01T12:10:24.099Z,0.00
2023-04-01T12:11:57.279Z,5.00
2023-04-01T12:13:34.319Z,5.25
2023-04-01T12:15:10.895Z,3.25
2023-04-01T12:16:34.369Z,16.50
2023-04-01T12:18:07.814Z,19.50
2023-04-01T12:19:35.111Z,13.50
2023-04-01T12:20:53.822Z,6.50
2023-04-01T12:22:29.059Z,13.00
2023-04-01T12:24:06.775Z,5.75
2023-04-01T12:25:46.791Z,1.00
2023-04-01T12:27:05.100Z,0.00
2023-04-01T12:28:47.311Z,0.00
2023-04-01T12:30:08.552Z,1.00
2023-04-01T12:31:20.714Z,2.00
2023-04-01T12:32:53.648Z,1.00
2023-04-01T12:34:27.420Z,5.50
2023-04-01T12:35:59.547Z,8.75
2023-04-01T12:37:44.839Z,3.50
2023-04-01T12:39:22.653Z,2.75
2023-04-01T12:40:48.477Z,1.50
2023-04-01T12:42:09.842Z,3.25
2023-04-01T12:43:24.859Z,3.00
2023-04-01T12:44:37.731Z,1.00
2023-04-01T12:46:03.611Z,0.75
2023-04-01T12:47:18.691Z,0.00
2023-04-01T12:48:37.655Z,0.00
2023-04-01T12:49:55.517Z,0.00
2023-04-01T12:51:13.357Z,0.00
2023-04-01T12:52:25.907Z,0.00
2023-04-01T12:53:56.350Z,0.00
2023-04-01T12:55:21.792Z,0.00
2023-04-01T12:56:36.327Z,0.00
2023-04-01T12:57:47.948Z,0.00
2023-04-01T12:59:15.860Z,0.00
2023-04-01T13:00:21.704Z,0.00
2023-04-01T13:01:32.616Z,0.00
2023-04-01T13:03:03.641Z,0.00
2023-04-01T13:04:35.188Z,0.00
2023-04-01T13:06:21.140Z,0.00
2023-04-01T13:07:50.406Z,0.00
2023-04-01T13:09:19.266Z,0.00
2023-04-01T13:10:48.950Z,0.00
2023-04-01T13:12:17.317Z,0.00
2023-04-01T13:13:41.109Z,0.00
2023-04-01T13:15:03.778Z,0.00
2023-04-01T13:16:31.698Z,0.00
2023-04-01T13:18:01.016Z,0.00
2023-04-01T13:19:14.291Z,0.50
2023-04-01T13:20:30.060Z,3.75
2023-04-01T13:22:11.227Z,4.25
2023-04-01T13:23:32.178Z,0.00
2023-04-01T13:24:42.584Z,11.75
2023-04-01T13:26:13.177Z,15.75
2023-04-01T13:27:27.620Z,5.00
2023-04-01T13:28:56.696Z,2.00
2023-04-01T13:30:25.740Z,2.00
2023-04-01T13:31:48.456Z,2.75
2023-04-01T13:33:03.360Z,5.00
2023-04-01T13:34:30.403Z,6.00
2023-04-01T13:36:08.510Z,3.00
2023-04-01T13:37:11.360Z,6.75
2023-04-01T13:38:38.694Z,6.00
2023-04-01T13:40:09.112Z,11.25
2023-04-01T13:41:22.589Z,15.50
2023-04-01T13:42:32.676Z,6.25
2023-04-01T13:43:46.144Z,7.75
2023-04-01T13:45:23.664Z,3.00
2023-04-01T13:47:03.999Z,0.50
2023-04-01T13:48:40.201Z,0.50
2023-04-01T13:50:04.305Z,1.00
2023-04-01T13:51:15.674Z,0.00
2023-04-01T13:52:44.132Z,7.75
2023-04-01T13:54:25.319Z,5.75
2023-04-01T13:55:51.413Z,3.25
2023-04-01T13:57:57.278Z,23.25
2023-04-01T13:59:24.749Z,24.25
2023-04-01T14:00:51.808Z,20.00
2023-04-01T14:02:19.409Z,17.00
2023-04-01T14:03:31.293Z,8.75
2023-04-01T14:04:45.927Z,2.00
2023-04-01T14:06:36.911Z,0.00
2023-04-01T14:08:07.296Z,0.75
2023-04-01T14:09:35.997Z,2.00
2023-04-01T14:10:47.740Z,0.00
2023-04-01T14:12:19.669Z,0.00
2023-04-01T14:13:31.555Z,0.00
2023-04-01T14:14:55.992Z,0.00
2023-04-01T14:16:26.574Z,0.00
2023-04-01T14:17:40.249Z,5.00
2023-04-01T14:19:33.560Z,12.25
2023-04-01T14:21:15.735Z,15.50
2023-04-01T14:22:40.120Z,11.75
2023-04-01T14:24:07.519Z,12.00
2023-04-01T14:25:37.202Z,8.00
2023-04-01T14:27:03.550Z,6.75
2023-04-01T14:29:55.084Z,2.00
2023-04-01T14:31:28.647Z,4.00
2023-04-01T14:32:54.149Z,5.00
2023-04-01T14:34:11.783Z,2.00
2023-04-01T14:35:23.459Z,2.00
2023-04-01T14:36:28.941Z,1.00
2023-04-01T14:38:09.064Z,1.00
2023-04-01T14:39:17.487Z,1.00
2023-04-01T14:40:31.050Z,1.00
2023-04-01T14:41:48.733Z,0.00
2023-04-01T14:43:10.080Z,0.00
2023-04-01T14:44:18.948Z,0.00
2023-04-01T14:45:59.126Z,1.25
2023-04-01T14:47:29.884Z,0.75
2023-04-01T14:48:40.623Z,0.00
2023-04-01T14:49:54.353Z,0.00
2023-04-01T14:51:04.283Z,0.00
2023-04-01T14:52:30.992Z,0.00
2023-04-01T14:53:40.904Z,0.00
2023-04-01T14:54:47.547Z,1.00
2023-04-01T14:55:50.382Z,1.00
2023-04-01T14:57:14.171Z,2.00
2023-04-01T14:58:24.031Z,2.00
2023-04-01T14:59:26.983Z,0.00
2023-04-01T15:00:49.554Z,3.75
2023-04-01T15:02:29.555Z,3.25
2023-04-01T15:03:34.878Z,3.00
2023-04-01T15:04:49.364Z,2.00
2023-04-01T15:06:29.683Z,3.00
2023-04-01T15:07:38.704Z,3.00
2023-04-01T15:09:13.091Z,6.75
2023-04-01T15:10:41.953Z,5.00
2023-04-01T15:12:18.067Z,3.00
2023-04-01T15:13:20.864Z,1.00
2023-04-01T15:14:41.632Z,1.00
2023-04-01T15:15:55.364Z,0.75
2023-04-01T15:17:16.301Z,2.00
2023-04-01T15:18:40.930Z,3.50
2023-04-01T15:20:26.803Z,1.50
2023-04-01T15:22:00.405Z,1.00
2023-04-01T15:23:38.513Z,1.00
2023-04-01T15:24:50.379Z,1.00
2023-04-01T15:26:15.016Z,1.75
2023-04-01T15:27:35.752Z,1.00
2023-04-01T15:29:07.773Z,1.00
2023-04-01T15:30:29.426Z,1.00
2023-04-01T15:32:00.426Z,2.75
2023-04-01T15:33:27.355Z,3.00
2023-04-01T15:34:56.662Z,4.00
2023-04-01T15:36:28.218Z,2.00
2023-04-01T15:38:01.062Z,5.50
2023-04-01T15:39:41.107Z,8.00
2023-04-01T15:40:49.872Z,6.50
2023-04-01T15:42:22.844Z,3.00
2023-04-01T15:43:44.961Z,1.00
2023-04-01T15:44:53.892Z,1.00
2023-04-01T15:46:17.729Z,1.00
2023-04-01T15:47:26.377Z,2.75
2023-04-01T15:49:01.836Z,2.00
2023-04-01T15:50:16.709Z,0.00
2023-04-01T15:51:25.247Z,0.00
2023-04-01T15:52:57.136Z,0.00
2023-04-01T15:54:26.125Z,0.00
2023-04-01T15:55:56.144Z,0.00
2023-04-01T15:57:17.638Z,0.00
2023-04-01T15:58:29.286Z,0.00
2023-04-01T15:59:57.145Z,0.00
2023-04-01T16:01:45.113Z,0.00
2023-04-01T16:02:54.995Z,3.00
2023-04-01T16:04:18.861Z,16.00
2023-04-01T16:06:00.103Z,27.00
2023-04-01T16:07:17.888Z,13.50
2023-04-01T16:08:41.894Z,4.50
2023-04-01T16:09:50.489Z,2.00
2023-04-01T16:11:22.933Z,1.00
2023-04-01T16:12:43.920Z,1.75
2023-04-01T16:14:01.609Z,1.75
2023-04-01T16:15:45.348Z,1.00
2023-04-01T16:16:51.369Z,0.00
2023-04-01T16:18:03.379Z,0.00
2023-04-01T16:19:29.055Z,0.00
2023-04-01T16:20:49.477Z,0.00
2023-04-01T16:22:02.350Z,3.50
2023-04-01T16:23:20.896Z,1.75
2023-04-01T16:24:48.299Z,0.00
2023-04-01T16:26:21.256Z,0.00
2023-04-01T16:27:24.213Z,1.00
2023-04-01T16:28:52.048Z,0.00
2023-04-01T16:30:31.991Z,2.00
2023-04-01T16:31:45.733Z,1.00
2023-04-01T16:33:04.400Z,0.00
2023-04-01T16:34:23.623Z,0.00
2023-04-01T16:35:57.994Z,0.00
2023-04-01T16:37:20.364Z,0.00